sensor_id;sensor_type;location;lat;lon;timestamp;P1;durP1;ratioP1;P2;durP2;ratioP2
19869;SDS011;10097;50.862;4.696;2022-09-24T00:00:56;24.43;;;14.73;;
19869;SDS011;10097;50.862;4.696;2022-09-24T00:03:22;25.40;;;14.70;;
19869;SDS011;10097;50.862;4.696;2022-09-24T00:05:49;21.17;;;14.10;;
19869;SDS011;10097;50.862;4.696;2022-09-24T00:08:16;24.47;;;14.20;;
19869;SDS011;10097;50.862;4.696;2022-09-24T00:10:50;22.43;;;14.23;;
19869;SDS011;10097;50.862;4.696;2022-09-24T00:13:16;25.87;;;15.77;;
19869;SDS011;10097;50.862;4.696;2022-09-24T00:15:47;24.27;;;14.37;;
19869;SDS011;10097;50.862;4.696;2022-09-24T00:18:14;23.63;;;14.13;;
19869;SDS011;10097;50.862;4.696;2022-09-24T00:20:42;27.77;;;14.67;;
19869;SDS011;10097;50.862;4.696;2022-09-24T00:23:17;22.70;;;15.07;;
19869;SDS011;10097;50.862;4.696;2022-09-24T00:25:47;24.17;;;14.43;;
19869;SDS011;10097;50.862;4.696;2022-09-24T00:28:31;29.47;;;15.13;;
19869;SDS011;10097;50.862;4.696;2022-09-24T00:31:02;25.77;;;15.53;;
19869;SDS011;10097;50.862;4.696;2022-09-24T00:33:31;25.90;;;14.83;;
19869;SDS011;10097;50.862;4.696;2022-09-24T00:35:59;24.67;;;13.93;;
19869;SDS011;10097;50.862;4.696;2022-09-24T00:38:29;24.17;;;14.37;;
19869;SDS011;10097;50.862;4.696;2022-09-24T00:40:59;22.17;;;13.40;;
19869;SDS011;10097;50.862;4.696;2022-09-24T00:43:33;24.40;;;14.07;;
19869;SDS011;10097;50.862;4.696;2022-09-24T00:46:09;19.90;;;11.80;;
19869;SDS011;10097;50.862;4.696;2022-09-24T00:48:51;22.53;;;11.90;;
19869;SDS011;10097;50.862;4.696;2022-09-24T00:51:21;24.43;;;11.27;;
19869;SDS011;10097;50.862;4.696;2022-09-24T00:53:50;22.00;;;11.20;;
19869;SDS011;10097;50.862;4.696;2022-09-24T00:56:19;17.83;;;10.17;;
19869;SDS011;10097;50.862;4.696;2022-09-24T00:58:48;16.83;;;10.03;;
19869;SDS011;10097;50.862;4.696;2022-09-24T01:01:17;17.23;;;10.23;;
19869;SDS011;10097;50.862;4.696;2022-09-24T01:03:45;21.90;;;11.03;;
19869;SDS011;10097;50.862;4.696;2022-09-24T01:06:12;20.33;;;11.73;;
19869;SDS011;10097;50.862;4.696;2022-09-24T01:08:38;23.23;;;11.30;;
19869;SDS011;10097;50.862;4.696;2022-09-24T01:13:47;23.63;;;11.47;;
19869;SDS011;10097;50.862;4.696;2022-09-24T01:16:27;19.10;;;10.63;;
19869;SDS011;10097;50.862;4.696;2022-09-24T01:21:48;22.17;;;11.83;;
19869;SDS011;10097;50.862;4.696;2022-09-24T01:32:32;20.80;;;12.20;;
19869;SDS011;10097;50.862;4.696;2022-09-24T01:37:51;23.43;;;11.77;;
19869;SDS011;10097;50.862;4.696;2022-09-24T01:40:23;21.67;;;12.53;;
19869;SDS011;10097;50.862;4.696;2022-09-24T01:42:51;20.70;;;12.00;;
19869;SDS011;10097;50.862;4.696;2022-09-24T01:45:18;21.73;;;12.20;;
19869;SDS011;10097;50.862;4.696;2022-09-24T01:47:45;21.67;;;12.60;;
19869;SDS011;10097;50.862;4.696;2022-09-24T01:50:13;23.03;;;12.97;;
19869;SDS011;10097;50.862;4.696;2022-09-24T01:52:47;25.00;;;13.87;;
19869;SDS011;10097;50.862;4.696;2022-09-24T01:55:22;26.30;;;13.77;;
19869;SDS011;10097;50.862;4.696;2022-09-24T01:57:53;23.17;;;12.63;;
19869;SDS011;10097;50.862;4.696;2022-09-24T02:00:25;23.07;;;13.73;;
19869;SDS011;10097;50.862;4.696;2022-09-24T02:08:06;24.27;;;14.03;;
19869;SDS011;10097;50.862;4.696;2022-09-24T02:11:19;25.53;;;14.40;;
19869;SDS011;10097;50.862;4.696;2022-09-24T02:13:46;25.17;;;14.20;;
19869;SDS011;10097;50.862;4.696;2022-09-24T02:16:35;26.50;;;13.77;;
19869;SDS011;10097;50.862;4.696;2022-09-24T02:19:12;27.63;;;15.20;;
19869;SDS011;10097;50.862;4.696;2022-09-24T02:21:41;27.40;;;15.63;;
19869;SDS011;10097;50.862;4.696;2022-09-24T02:24:09;28.30;;;15.60;;
19869;SDS011;10097;50.862;4.696;2022-09-24T02:26:44;26.90;;;14.57;;
19869;SDS011;10097;50.862;4.696;2022-09-24T02:29:11;24.73;;;15.33;;
19869;SDS011;10097;50.862;4.696;2022-09-24T02:31:38;27.43;;;15.57;;
19869;SDS011;10097;50.862;4.696;2022-09-24T02:34:08;31.07;;;16.40;;
19869;SDS011;10097;50.862;4.696;2022-09-24T02:36:47;29.07;;;15.50;;
19869;SDS011;10097;50.862;4.696;2022-09-24T02:39:12;27.83;;;15.87;;
19869;SDS011;10097;50.862;4.696;2022-09-24T02:41:38;28.47;;;16.07;;
19869;SDS011;10097;50.862;4.696;2022-09-24T02:44:06;29.43;;;16.50;;
19869;SDS011;10097;50.862;4.696;2022-09-24T02:46:41;32.40;;;16.23;;
19869;SDS011;10097;50.862;4.696;2022-09-24T02:49:08;28.63;;;16.53;;
19869;SDS011;10097;50.862;4.696;2022-09-24T02:51:34;30.83;;;16.90;;
19869;SDS011;10097;50.862;4.696;2022-09-24T02:54:00;27.67;;;16.30;;
19869;SDS011;10097;50.862;4.696;2022-09-24T02:56:27;29.37;;;16.40;;
19869;SDS011;10097;50.862;4.696;2022-09-24T02:58:53;27.27;;;15.57;;
19869;SDS011;10097;50.862;4.696;2022-09-24T03:01:19;32.83;;;16.73;;
19869;SDS011;10097;50.862;4.696;2022-09-24T03:03:45;29.30;;;15.30;;
19869;SDS011;10097;50.862;4.696;2022-09-24T03:06:12;24.50;;;14.50;;
19869;SDS011;10097;50.862;4.696;2022-09-24T03:08:38;24.97;;;14.27;;
19869;SDS011;10097;50.862;4.696;2022-09-24T03:11:05;31.10;;;14.93;;
19869;SDS011;10097;50.862;4.696;2022-09-24T03:13:31;27.23;;;14.83;;
19869;SDS011;10097;50.862;4.696;2022-09-24T03:15:56;25.03;;;15.03;;
19869;SDS011;10097;50.862;4.696;2022-09-24T03:18:22;29.80;;;14.90;;
19869;SDS011;10097;50.862;4.696;2022-09-24T03:21:01;25.37;;;14.97;;
19869;SDS011;10097;50.862;4.696;2022-09-24T03:23:28;25.17;;;14.90;;
19869;SDS011;10097;50.862;4.696;2022-09-24T03:25:54;26.67;;;14.87;;
19869;SDS011;10097;50.862;4.696;2022-09-24T03:28:20;25.80;;;15.40;;
19869;SDS011;10097;50.862;4.696;2022-09-24T03:30:46;28.23;;;15.70;;
19869;SDS011;10097;50.862;4.696;2022-09-24T03:33:28;31.13;;;16.03;;
19869;SDS011;10097;50.862;4.696;2022-09-24T03:35:58;32.23;;;15.67;;
19869;SDS011;10097;50.862;4.696;2022-09-24T03:38:28;29.40;;;15.47;;
19869;SDS011;10097;50.862;4.696;2022-09-24T03:40:55;28.03;;;16.00;;
19869;SDS011;10097;50.862;4.696;2022-09-24T03:43:21;27.03;;;15.33;;
19869;SDS011;10097;50.862;4.696;2022-09-24T03:45:47;28.73;;;15.90;;
19869;SDS011;10097;50.862;4.696;2022-09-24T03:48:14;24.77;;;15.43;;
19869;SDS011;10097;50.862;4.696;2022-09-24T03:50:41;28.03;;;15.03;;
19869;SDS011;10097;50.862;4.696;2022-09-24T03:53:07;24.90;;;15.07;;
19869;SDS011;10097;50.862;4.696;2022-09-24T03:55:33;26.57;;;15.27;;
19869;SDS011;10097;50.862;4.696;2022-09-24T03:57:58;27.13;;;15.23;;
19869;SDS011;10097;50.862;4.696;2022-09-24T04:00:24;28.20;;;15.37;;
19869;SDS011;10097;50.862;4.696;2022-09-24T04:02:51;29.00;;;15.37;;
19869;SDS011;10097;50.862;4.696;2022-09-24T04:05:17;29.83;;;15.73;;
19869;SDS011;10097;50.862;4.696;2022-09-24T04:07:43;25.90;;;15.23;;
19869;SDS011;10097;50.862;4.696;2022-09-24T04:10:09;28.47;;;15.93;;
19869;SDS011;10097;50.862;4.696;2022-09-24T04:12:35;29.47;;;15.27;;
19869;SDS011;10097;50.862;4.696;2022-09-24T04:15:00;26.63;;;15.13;;
19869;SDS011;10097;50.862;4.696;2022-09-24T04:17:29;30.30;;;15.30;;
19869;SDS011;10097;50.862;4.696;2022-09-24T04:19:56;28.37;;;16.00;;
19869;SDS011;10097;50.862;4.696;2022-09-24T04:22:22;25.53;;;14.93;;
19869;SDS011;10097;50.862;4.696;2022-09-24T04:24:48;30.33;;;16.40;;
19869;SDS011;10097;50.862;4.696;2022-09-24T04:27:15;32.20;;;15.93;;
19869;SDS011;10097;50.862;4.696;2022-09-24T04:29:41;30.67;;;16.73;;
19869;SDS011;10097;50.862;4.696;2022-09-24T04:32:06;31.67;;;17.30;;
19869;SDS011;10097;50.862;4.696;2022-09-24T04:34:32;33.17;;;16.50;;
19869;SDS011;10097;50.862;4.696;2022-09-24T04:36:58;28.43;;;16.50;;
19869;SDS011;10097;50.862;4.696;2022-09-24T04:39:23;30.07;;;17.83;;
19869;SDS011;10097;50.862;4.696;2022-09-24T04:41:51;31.17;;;16.23;;
19869;SDS011;10097;50.862;4.696;2022-09-24T04:44:17;29.47;;;16.47;;
19869;SDS011;10097;50.862;4.696;2022-09-24T04:46:43;30.43;;;16.60;;
19869;SDS011;10097;50.862;4.696;2022-09-24T04:49:09;29.03;;;16.60;;
19869;SDS011;10097;50.862;4.696;2022-09-24T04:51:35;31.47;;;16.87;;
19869;SDS011;10097;50.862;4.696;2022-09-24T04:54:02;33.37;;;17.40;;
19869;SDS011;10097;50.862;4.696;2022-09-24T04:56:28;32.93;;;17.67;;
19869;SDS011;10097;50.862;4.696;2022-09-24T04:58:54;33.77;;;16.90;;
19869;SDS011;10097;50.862;4.696;2022-09-24T05:01:21;34.87;;;17.67;;
19869;SDS011;10097;50.862;4.696;2022-09-24T05:03:47;33.47;;;18.03;;
19869;SDS011;10097;50.862;4.696;2022-09-24T05:06:13;30.83;;;17.67;;
19869;SDS011;10097;50.862;4.696;2022-09-24T05:08:40;37.70;;;19.10;;
19869;SDS011;10097;50.862;4.696;2022-09-24T05:11:05;36.17;;;17.77;;
19869;SDS011;10097;50.862;4.696;2022-09-24T05:13:32;39.10;;;18.50;;
19869;SDS011;10097;50.862;4.696;2022-09-24T05:15:59;36.23;;;18.60;;
19869;SDS011;10097;50.862;4.696;2022-09-24T05:18:25;32.60;;;16.60;;
19869;SDS011;10097;50.862;4.696;2022-09-24T05:20:51;36.73;;;18.53;;
19869;SDS011;10097;50.862;4.696;2022-09-24T05:23:18;36.53;;;18.43;;
19869;SDS011;10097;50.862;4.696;2022-09-24T05:25:44;35.33;;;18.20;;
19869;SDS011;10097;50.862;4.696;2022-09-24T05:28:28;38.13;;;18.53;;
19869;SDS011;10097;50.862;4.696;2022-09-24T05:30:57;29.80;;;16.97;;
19869;SDS011;10097;50.862;4.696;2022-09-24T05:33:24;35.57;;;18.33;;
19869;SDS011;10097;50.862;4.696;2022-09-24T05:35:55;40.93;;;18.13;;
19869;SDS011;10097;50.862;4.696;2022-09-24T05:38:22;34.47;;;17.60;;
19869;SDS011;10097;50.862;4.696;2022-09-24T05:40:48;37.17;;;19.10;;
19869;SDS011;10097;50.862;4.696;2022-09-24T05:43:14;34.63;;;17.27;;
19869;SDS011;10097;50.862;4.696;2022-09-24T05:45:41;39.40;;;18.67;;
19869;SDS011;10097;50.862;4.696;2022-09-24T05:48:09;35.90;;;17.53;;
19869;SDS011;10097;50.862;4.696;2022-09-24T05:50:35;36.07;;;18.93;;
19869;SDS011;10097;50.862;4.696;2022-09-24T05:53:01;38.20;;;18.27;;
19869;SDS011;10097;50.862;4.696;2022-09-24T05:55:28;38.93;;;19.07;;
19869;SDS011;10097;50.862;4.696;2022-09-24T05:57:54;36.33;;;16.80;;
19869;SDS011;10097;50.862;4.696;2022-09-24T06:00:19;33.27;;;17.90;;
19869;SDS011;10097;50.862;4.696;2022-09-24T06:02:45;33.87;;;18.13;;
19869;SDS011;10097;50.862;4.696;2022-09-24T06:05:11;37.87;;;18.67;;
19869;SDS011;10097;50.862;4.696;2022-09-24T06:07:37;39.80;;;18.27;;
19869;SDS011;10097;50.862;4.696;2022-09-24T06:10:04;37.27;;;18.13;;
19869;SDS011;10097;50.862;4.696;2022-09-24T06:12:31;34.67;;;18.10;;
19869;SDS011;10097;50.862;4.696;2022-09-24T06:14:59;40.77;;;18.30;;
19869;SDS011;10097;50.862;4.696;2022-09-24T06:17:27;40.77;;;17.90;;
19869;SDS011;10097;50.862;4.696;2022-09-24T06:19:54;42.87;;;18.33;;
19869;SDS011;10097;50.862;4.696;2022-09-24T06:22:22;35.30;;;17.87;;
19869;SDS011;10097;50.862;4.696;2022-09-24T06:24:47;35.57;;;17.00;;
19869;SDS011;10097;50.862;4.696;2022-09-24T06:27:15;39.60;;;18.13;;
19869;SDS011;10097;50.862;4.696;2022-09-24T06:29:41;39.77;;;18.40;;
19869;SDS011;10097;50.862;4.696;2022-09-24T06:32:06;37.03;;;19.17;;
19869;SDS011;10097;50.862;4.696;2022-09-24T06:34:33;37.03;;;18.13;;
19869;SDS011;10097;50.862;4.696;2022-09-24T06:36:59;41.33;;;18.70;;
19869;SDS011;10097;50.862;4.696;2022-09-24T06:39:25;35.97;;;17.20;;
19869;SDS011;10097;50.862;4.696;2022-09-24T06:41:51;38.77;;;18.17;;
19869;SDS011;10097;50.862;4.696;2022-09-24T06:44:17;33.70;;;16.13;;
19869;SDS011;10097;50.862;4.696;2022-09-24T06:46:43;39.53;;;16.73;;
19869;SDS011;10097;50.862;4.696;2022-09-24T06:49:10;36.27;;;17.03;;
19869;SDS011;10097;50.862;4.696;2022-09-24T06:51:36;40.40;;;17.10;;
19869;SDS011;10097;50.862;4.696;2022-09-24T06:54:02;36.07;;;17.07;;
19869;SDS011;10097;50.862;4.696;2022-09-24T06:56:28;35.77;;;17.20;;
19869;SDS011;10097;50.862;4.696;2022-09-24T06:58:55;34.90;;;16.97;;
19869;SDS011;10097;50.862;4.696;2022-09-24T07:01:20;36.23;;;16.60;;
19869;SDS011;10097;50.862;4.696;2022-09-24T07:03:46;38.03;;;17.13;;
19869;SDS011;10097;50.862;4.696;2022-09-24T07:06:12;35.83;;;17.13;;
19869;SDS011;10097;50.862;4.696;2022-09-24T07:08:38;36.60;;;16.77;;
19869;SDS011;10097;50.862;4.696;2022-09-24T07:11:03;32.43;;;15.67;;
19869;SDS011;10097;50.862;4.696;2022-09-24T07:13:29;39.30;;;16.20;;
19869;SDS011;10097;50.862;4.696;2022-09-24T07:15:55;37.63;;;17.07;;
19869;SDS011;10097;50.862;4.696;2022-09-24T07:18:20;38.50;;;16.13;;
19869;SDS011;10097;50.862;4.696;2022-09-24T07:20:50;33.23;;;16.30;;
19869;SDS011;10097;50.862;4.696;2022-09-24T07:23:16;34.00;;;15.33;;
19869;SDS011;10097;50.862;4.696;2022-09-24T07:25:42;32.93;;;16.97;;
19869;SDS011;10097;50.862;4.696;2022-09-24T07:28:09;30.80;;;15.40;;
19869;SDS011;10097;50.862;4.696;2022-09-24T07:30:36;31.93;;;15.60;;
19869;SDS011;10097;50.862;4.696;2022-09-24T07:33:02;34.33;;;16.07;;
19869;SDS011;10097;50.862;4.696;2022-09-24T07:35:29;35.93;;;15.37;;
19869;SDS011;10097;50.862;4.696;2022-09-24T07:38:02;34.90;;;16.40;;
19869;SDS011;10097;50.862;4.696;2022-09-24T07:40:30;29.23;;;14.73;;
19869;SDS011;10097;50.862;4.696;2022-09-24T07:42:56;33.40;;;15.57;;
19869;SDS011;10097;50.862;4.696;2022-09-24T07:45:23;33.73;;;15.53;;
19869;SDS011;10097;50.862;4.696;2022-09-24T07:48:00;32.23;;;15.20;;
19869;SDS011;10097;50.862;4.696;2022-09-24T07:50:28;29.13;;;15.70;;
19869;SDS011;10097;50.862;4.696;2022-09-24T07:52:55;28.33;;;15.13;;
19869;SDS011;10097;50.862;4.696;2022-09-24T07:55:21;35.13;;;15.13;;
19869;SDS011;10097;50.862;4.696;2022-09-24T07:57:48;30.57;;;15.93;;
19869;SDS011;10097;50.862;4.696;2022-09-24T08:00:16;30.73;;;15.47;;
19869;SDS011;10097;50.862;4.696;2022-09-24T08:02:43;31.57;;;16.63;;
19869;SDS011;10097;50.862;4.696;2022-09-24T08:05:09;28.50;;;15.30;;
19869;SDS011;10097;50.862;4.696;2022-09-24T08:07:35;29.90;;;15.33;;
19869;SDS011;10097;50.862;4.696;2022-09-24T08:10:01;30.33;;;14.30;;
19869;SDS011;10097;50.862;4.696;2022-09-24T08:12:27;27.83;;;14.53;;
19869;SDS011;10097;50.862;4.696;2022-09-24T08:14:54;24.60;;;13.40;;
19869;SDS011;10097;50.862;4.696;2022-09-24T08:17:19;28.83;;;14.73;;
19869;SDS011;10097;50.862;4.696;2022-09-24T08:19:45;28.00;;;14.75;;
19869;SDS011;10097;50.862;4.696;2022-09-24T08:22:11;26.05;;;13.82;;
19869;SDS011;10097;50.862;4.696;2022-09-24T08:24:38;25.83;;;14.43;;
19869;SDS011;10097;50.862;4.696;2022-09-24T08:27:05;28.97;;;14.60;;
19869;SDS011;10097;50.862;4.696;2022-09-24T08:29:31;27.60;;;14.33;;
19869;SDS011;10097;50.862;4.696;2022-09-24T08:31:57;26.13;;;13.55;;
19869;SDS011;10097;50.862;4.696;2022-09-24T08:34:22;25.17;;;12.02;;
19869;SDS011;10097;50.862;4.696;2022-09-24T08:36:49;24.42;;;12.85;;
19869;SDS011;10097;50.862;4.696;2022-09-24T08:39:14;29.50;;;13.77;;
19869;SDS011;10097;50.862;4.696;2022-09-24T08:41:56;29.30;;;13.43;;
19869;SDS011;10097;50.862;4.696;2022-09-24T08:44:28;26.60;;;13.57;;
19869;SDS011;10097;50.862;4.696;2022-09-24T08:50:26;26.23;;;12.50;;
19869;SDS011;10097;50.862;4.696;2022-09-24T08:53:01;26.73;;;14.03;;
19869;SDS011;10097;50.862;4.696;2022-09-24T08:55:33;25.37;;;12.73;;
19869;SDS011;10097;50.862;4.696;2022-09-24T09:03:23;24.90;;;13.40;;
19869;SDS011;10097;50.862;4.696;2022-09-24T09:05:55;25.33;;;12.95;;
19869;SDS011;10097;50.862;4.696;2022-09-24T09:08:28;25.02;;;12.45;;
19869;SDS011;10097;50.862;4.696;2022-09-24T09:11:00;27.63;;;13.20;;
19869;SDS011;10097;50.862;4.696;2022-09-24T09:13:32;27.98;;;13.48;;
19869;SDS011;10097;50.862;4.696;2022-09-24T09:16:45;27.17;;;13.02;;
19869;SDS011;10097;50.862;4.696;2022-09-24T09:19:14;23.60;;;12.30;;
19869;SDS011;10097;50.862;4.696;2022-09-24T09:21:42;25.50;;;13.68;;
19869;SDS011;10097;50.862;4.696;2022-09-24T09:24:18;26.30;;;13.27;;
19869;SDS011;10097;50.862;4.696;2022-09-24T09:26:48;24.58;;;13.00;;
19869;SDS011;10097;50.862;4.696;2022-09-24T09:29:18;25.73;;;12.35;;
19869;SDS011;10097;50.862;4.696;2022-09-24T09:32:35;24.80;;;12.98;;
19869;SDS011;10097;50.862;4.696;2022-09-24T09:37:44;25.20;;;13.07;;
19869;SDS011;10097;50.862;4.696;2022-09-24T09:43:33;26.85;;;13.35;;
19869;SDS011;10097;50.862;4.696;2022-09-24T09:48:44;25.38;;;12.80;;
19869;SDS011;10097;50.862;4.696;2022-09-24T09:51:21;25.67;;;13.05;;
19869;SDS011;10097;50.862;4.696;2022-09-24T09:53:56;24.63;;;12.50;;
19869;SDS011;10097;50.862;4.696;2022-09-24T09:56:25;26.88;;;13.65;;
19869;SDS011;10097;50.862;4.696;2022-09-24T09:59:07;23.08;;;12.55;;
19869;SDS011;10097;50.862;4.696;2022-09-24T10:01:44;26.92;;;12.57;;
19869;SDS011;10097;50.862;4.696;2022-09-24T10:09:37;22.08;;;11.10;;
19869;SDS011;10097;50.862;4.696;2022-09-24T10:12:07;23.38;;;11.25;;
19869;SDS011;10097;50.862;4.696;2022-09-24T10:14:56;22.10;;;11.32;;
19869;SDS011;10097;50.862;4.696;2022-09-24T10:17:26;20.50;;;10.90;;
19869;SDS011;10097;50.862;4.696;2022-09-24T10:19:54;25.27;;;11.80;;
19869;SDS011;10097;50.862;4.696;2022-09-24T10:22:21;22.83;;;11.57;;
19869;SDS011;10097;50.862;4.696;2022-09-24T10:24:49;27.35;;;12.10;;
19869;SDS011;10097;50.862;4.696;2022-09-24T10:27:21;23.48;;;11.98;;
19869;SDS011;10097;50.862;4.696;2022-09-24T10:29:59;28.27;;;13.30;;
19869;SDS011;10097;50.862;4.696;2022-09-24T10:32:54;20.85;;;11.20;;
19869;SDS011;10097;50.862;4.696;2022-09-24T10:35:24;24.83;;;11.23;;
19869;SDS011;10097;50.862;4.696;2022-09-24T10:37:52;29.75;;;12.70;;
19869;SDS011;10097;50.862;4.696;2022-09-24T10:40:20;27.77;;;12.93;;
19869;SDS011;10097;50.862;4.696;2022-09-24T10:43:02;26.08;;;12.75;;
19869;SDS011;10097;50.862;4.696;2022-09-24T10:55:44;22.02;;;11.05;;
19869;SDS011;10097;50.862;4.696;2022-09-24T10:57:41;25.80;;;11.65;;
19869;SDS011;10097;50.862;4.696;2022-09-24T11:00:20;21.50;;;10.90;;
19869;SDS011;10097;50.862;4.696;2022-09-24T11:05:52;31.00;;;15.50;;
19869;SDS011;10097;50.862;4.696;2022-09-24T11:08:24;34.03;;;15.25;;
19869;SDS011;10097;50.862;4.696;2022-09-24T11:24:46;23.70;;;11.35;;
19869;SDS011;10097;50.862;4.696;2022-09-24T11:30:20;27.13;;;10.98;;
19869;SDS011;10097;50.862;4.696;2022-09-24T11:32:59;21.90;;;9.80;;
19869;SDS011;10097;50.862;4.696;2022-09-24T11:39:10;24.10;;;10.40;;
19869;SDS011;10097;50.862;4.696;2022-09-24T11:49:46;22.52;;;9.90;;
19869;SDS011;10097;50.862;4.696;2022-09-24T11:55:36;22.45;;;9.30;;
19869;SDS011;10097;50.862;4.696;2022-09-24T12:06:04;23.27;;;9.63;;
19869;SDS011;10097;50.862;4.696;2022-09-24T12:11:24;22.02;;;9.68;;
19869;SDS011;10097;50.862;4.696;2022-09-24T12:14:02;20.25;;;9.80;;
19869;SDS011;10097;50.862;4.696;2022-09-24T12:16:35;17.75;;;8.77;;
19869;SDS011;10097;50.862;4.696;2022-09-24T12:21:44;17.23;;;8.07;;
19869;SDS011;10097;50.862;4.696;2022-09-24T12:27:35;19.23;;;8.23;;
19869;SDS011;10097;50.862;4.696;2022-09-24T12:38:18;16.10;;;7.43;;
19869;SDS011;10097;50.862;4.696;2022-09-24T12:41:04;18.77;;;7.20;;
19869;SDS011;10097;50.862;4.696;2022-09-24T12:48:57;19.92;;;7.93;;
19869;SDS011;10097;50.862;4.696;2022-09-24T12:51:23;18.17;;;8.05;;
19869;SDS011;10097;50.862;4.696;2022-09-24T12:57:07;13.38;;;7.18;;
19869;SDS011;10097;50.862;4.696;2022-09-24T12:59:44;15.02;;;7.40;;
19869;SDS011;10097;50.862;4.696;2022-09-24T13:02:21;16.17;;;8.15;;
19869;SDS011;10097;50.862;4.696;2022-09-24T13:04:50;17.83;;;8.20;;
19869;SDS011;10097;50.862;4.696;2022-09-24T13:07:35;15.60;;;8.00;;
19869;SDS011;10097;50.862;4.696;2022-09-24T13:12:41;14.88;;;7.63;;
19869;SDS011;10097;50.862;4.696;2022-09-24T13:15:19;17.10;;;7.68;;
19869;SDS011;10097;50.862;4.696;2022-09-24T13:18:02;15.35;;;8.07;;
19869;SDS011;10097;50.862;4.696;2022-09-24T13:20:38;15.13;;;7.30;;
19869;SDS011;10097;50.862;4.696;2022-09-24T13:23:11;19.33;;;8.93;;
19869;SDS011;10097;50.862;4.696;2022-09-24T13:25:59;15.60;;;7.57;;
19869;SDS011;10097;50.862;4.696;2022-09-24T13:28:28;13.85;;;7.25;;
19869;SDS011;10097;50.862;4.696;2022-09-24T13:31:07;14.02;;;7.80;;
19869;SDS011;10097;50.862;4.696;2022-09-24T13:33:46;15.63;;;7.57;;
19869;SDS011;10097;50.862;4.696;2022-09-24T13:36:27;14.55;;;7.93;;
19869;SDS011;10097;50.862;4.696;2022-09-24T13:41:55;17.88;;;6.90;;
19869;SDS011;10097;50.862;4.696;2022-09-24T13:47:47;13.25;;;6.95;;
19869;SDS011;10097;50.862;4.696;2022-09-24T13:50:08;19.48;;;9.10;;
19869;SDS011;10097;50.862;4.696;2022-09-24T13:52:57;13.38;;;7.70;;
19869;SDS011;10097;50.862;4.696;2022-09-24T13:55:24;20.98;;;8.68;;
19869;SDS011;10097;50.862;4.696;2022-09-24T13:57:57;16.35;;;8.70;;
19869;SDS011;10097;50.862;4.696;2022-09-24T14:00:24;15.52;;;8.02;;
19869;SDS011;10097;50.862;4.696;2022-09-24T14:02:58;16.00;;;9.05;;
19869;SDS011;10097;50.862;4.696;2022-09-24T14:05:43;16.80;;;9.43;;
19869;SDS011;10097;50.862;4.696;2022-09-24T14:08:10;15.25;;;8.52;;
19869;SDS011;10097;50.862;4.696;2022-09-24T14:10:39;15.70;;;8.45;;
19869;SDS011;10097;50.862;4.696;2022-09-24T14:13:15;17.43;;;8.90;;
19869;SDS011;10097;50.862;4.696;2022-09-24T14:16:06;16.53;;;8.93;;
19869;SDS011;10097;50.862;4.696;2022-09-24T14:18:33;17.95;;;9.00;;
19869;SDS011;10097;50.862;4.696;2022-09-24T14:23:33;17.07;;;8.97;;
19869;SDS011;10097;50.862;4.696;2022-09-24T14:26:25;17.80;;;9.70;;
19869;SDS011;10097;50.862;4.696;2022-09-24T14:29:02;16.60;;;9.25;;
19869;SDS011;10097;50.862;4.696;2022-09-24T14:31:31;19.03;;;9.80;;
19869;SDS011;10097;50.862;4.696;2022-09-24T14:33:58;18.08;;;9.63;;
19869;SDS011;10097;50.862;4.696;2022-09-24T14:36:28;18.77;;;9.90;;
19869;SDS011;10097;50.862;4.696;2022-09-24T14:41:23;18.47;;;9.87;;
19869;SDS011;10097;50.862;4.696;2022-09-24T14:43:54;21.90;;;9.97;;
19869;SDS011;10097;50.862;4.696;2022-09-24T14:46:29;18.98;;;9.40;;
19869;SDS011;10097;50.862;4.696;2022-09-24T14:49:04;19.45;;;9.27;;
19869;SDS011;10097;50.862;4.696;2022-09-24T14:51:49;18.70;;;10.10;;
19869;SDS011;10097;50.862;4.696;2022-09-24T14:54:32;19.27;;;9.93;;
19869;SDS011;10097;50.862;4.696;2022-09-24T14:59:41;17.63;;;9.20;;
19869;SDS011;10097;50.862;4.696;2022-09-24T15:04:45;16.65;;;8.75;;
19869;SDS011;10097;50.862;4.696;2022-09-24T15:07:14;17.58;;;8.73;;
19869;SDS011;10097;50.862;4.696;2022-09-24T15:09:49;22.97;;;9.40;;
19869;SDS011;10097;50.862;4.696;2022-09-24T15:12:30;19.17;;;9.25;;
19869;SDS011;10097;50.862;4.696;2022-09-24T15:17:29;15.30;;;9.18;;
19869;SDS011;10097;50.862;4.696;2022-09-24T15:19:58;15.93;;;8.83;;
19869;SDS011;10097;50.862;4.696;2022-09-24T15:22:25;15.75;;;8.52;;
19869;SDS011;10097;50.862;4.696;2022-09-24T15:24:56;14.37;;;8.57;;
19869;SDS011;10097;50.862;4.696;2022-09-24T15:27:23;16.33;;;8.63;;
19869;SDS011;10097;50.862;4.696;2022-09-24T15:29:57;15.43;;;8.90;;
19869;SDS011;10097;50.862;4.696;2022-09-24T15:32:24;17.73;;;8.67;;
19869;SDS011;10097;50.862;4.696;2022-09-24T15:34:59;13.03;;;7.43;;
19869;SDS011;10097;50.862;4.696;2022-09-24T15:37:26;16.30;;;7.20;;
19869;SDS011;10097;50.862;4.696;2022-09-24T15:39:57;15.17;;;7.67;;
19869;SDS011;10097;50.862;4.696;2022-09-24T15:42:29;15.00;;;7.33;;
19869;SDS011;10097;50.862;4.696;2022-09-24T15:44:55;15.23;;;7.43;;
19869;SDS011;10097;50.862;4.696;2022-09-24T15:47:22;15.67;;;7.80;;
19869;SDS011;10097;50.862;4.696;2022-09-24T15:49:48;13.70;;;7.23;;
19869;SDS011;10097;50.862;4.696;2022-09-24T15:54:48;18.70;;;8.40;;
19869;SDS011;10097;50.862;4.696;2022-09-24T15:57:20;13.97;;;8.23;;
19869;SDS011;10097;50.862;4.696;2022-09-24T15:59:52;19.63;;;9.10;;
19869;SDS011;10097;50.862;4.696;2022-09-24T16:02:22;16.40;;;8.17;;
19869;SDS011;10097;50.862;4.696;2022-09-24T16:04:51;18.00;;;9.27;;
19869;SDS011;10097;50.862;4.696;2022-09-24T16:07:16;16.97;;;9.10;;
19869;SDS011;10097;50.862;4.696;2022-09-24T16:09:42;17.63;;;8.37;;
19869;SDS011;10097;50.862;4.696;2022-09-24T16:12:10;23.37;;;9.03;;
19869;SDS011;10097;50.862;4.696;2022-09-24T16:14:39;19.73;;;10.13;;
19869;SDS011;10097;50.862;4.696;2022-09-24T16:17:05;18.60;;;10.73;;
19869;SDS011;10097;50.862;4.696;2022-09-24T16:19:30;21.33;;;10.47;;
19869;SDS011;10097;50.862;4.696;2022-09-24T16:21:56;20.73;;;10.33;;
19869;SDS011;10097;50.862;4.696;2022-09-24T16:24:23;15.70;;;9.70;;
19869;SDS011;10097;50.862;4.696;2022-09-24T16:26:49;15.77;;;8.70;;
19869;SDS011;10097;50.862;4.696;2022-09-24T16:29:15;16.80;;;9.10;;
19869;SDS011;10097;50.862;4.696;2022-09-24T16:31:42;18.77;;;9.27;;
19869;SDS011;10097;50.862;4.696;2022-09-24T16:34:09;15.33;;;8.37;;
19869;SDS011;10097;50.862;4.696;2022-09-24T16:36:35;18.90;;;9.60;;
19869;SDS011;10097;50.862;4.696;2022-09-24T16:39:01;14.53;;;8.40;;
19869;SDS011;10097;50.862;4.696;2022-09-24T16:41:27;14.20;;;8.20;;
19869;SDS011;10097;50.862;4.696;2022-09-24T16:43:58;17.60;;;8.93;;
19869;SDS011;10097;50.862;4.696;2022-09-24T16:46:27;17.83;;;9.20;;
19869;SDS011;10097;50.862;4.696;2022-09-24T16:48:52;16.73;;;9.13;;
19869;SDS011;10097;50.862;4.696;2022-09-24T16:51:18;16.40;;;8.77;;
19869;SDS011;10097;50.862;4.696;2022-09-24T16:53:44;16.20;;;8.77;;
19869;SDS011;10097;50.862;4.696;2022-09-24T16:56:11;16.27;;;8.90;;
19869;SDS011;10097;50.862;4.696;2022-09-24T16:58:42;19.03;;;9.23;;
19869;SDS011;10097;50.862;4.696;2022-09-24T17:01:11;18.03;;;9.30;;
19869;SDS011;10097;50.862;4.696;2022-09-24T17:03:38;18.37;;;9.30;;
19869;SDS011;10097;50.862;4.696;2022-09-24T17:06:05;17.70;;;9.80;;
19869;SDS011;10097;50.862;4.696;2022-09-24T17:08:32;19.47;;;10.97;;